Tarim, Yemen
Current Conditions -  °F | °C
As of 11:00 PM on Sunday 25 Jan 2015 (Local Time) from OYRN Reporting Station
Few Clouds Few Clouds  
Wind Chill: 72°   Ceiling: Unl
Heat Index: 72°   Visibility: 6mi
Dew Point: 63°   Wind: 6mph
Humidity: 73%   Direction: 360°N
Pressure: 30.12"   Gusts: NA
Location:  16.06°N, 49°E
Report Text: OYRN 252000Z 36005KT 340V090 9999 FEW018 22/17 Q1020
Loading
Personal Weather Stations






























Interactive Weather Map New forecast layout! Learn more

10-Day Weather Forecast

Advertisements
Track Severe Weather on mobile